createdAt,value
2018-07-13T00:00:45.753Z,67.73
2018-07-13T00:02:58.118Z,67.92
2018-07-13T00:05:10.573Z,68.12
2018-07-13T00:07:23.014Z,67.57
2018-07-13T00:09:35.372Z,67.66
2018-07-13T00:11:47.734Z,68.13
2018-07-13T00:14:19.741Z,67.24
2018-07-13T00:16:32.095Z,67.80
2018-07-13T00:18:44.451Z,67.44
2018-07-13T00:20:57.074Z,68.58
2018-07-13T00:23:09.519Z,68.57
2018-07-13T00:25:21.948Z,68.42
2018-07-13T00:27:34.591Z,68.28
2018-07-13T00:29:46.933Z,68.86
2018-07-13T00:31:59.290Z,68.50
2018-07-13T00:34:11.706Z,68.67
2018-07-13T00:36:24.245Z,68.27
2018-07-13T00:38:36.574Z,68.55
2018-07-13T00:40:48.958Z,68.05
2018-07-13T00:43:01.367Z,68.44
2018-07-13T00:45:13.733Z,67.68
2018-07-13T00:47:26.459Z,67.30
2018-07-13T00:49:38.812Z,67.27
2018-07-13T00:51:51.262Z,67.87
2018-07-13T00:54:03.633Z,68.36
2018-07-13T00:56:15.967Z,67.39
2018-07-13T00:58:28.434Z,67.52
2018-07-13T01:00:40.863Z,67.87
2018-07-13T01:02:53.232Z,67.27
2018-07-13T01:05:05.779Z,67.07
2018-07-13T01:07:18.282Z,67.91
2018-07-13T01:09:30.806Z,67.25
2018-07-13T01:11:43.134Z,68.24
2018-07-13T01:13:55.589Z,67.41
2018-07-13T01:16:08.003Z,67.88
2018-07-13T01:18:20.442Z,68.69
2018-07-13T01:20:32.936Z,68.09
2018-07-13T01:22:45.354Z,68.69
2018-07-13T01:24:57.761Z,68.66
2018-07-13T01:27:10.099Z,69.04
2018-07-13T01:29:22.707Z,69.13
2018-07-13T01:31:35.043Z,69.76
2018-07-13T01:33:47.569Z,70.56
2018-07-13T01:36:00.003Z,70.16
2018-07-13T01:38:12.382Z,70.13
2018-07-13T01:40:24.888Z,69.80
2018-07-13T01:42:37.342Z,69.45
2018-07-13T01:44:49.694Z,69.84
2018-07-13T01:47:02.074Z,69.95
2018-07-13T01:49:14.403Z,70.48
2018-07-13T01:51:26.811Z,69.65
2018-07-13T01:53:39.306Z,69.54
2018-07-13T01:55:51.762Z,69.33
2018-07-13T01:58:04.246Z,69.81
2018-07-13T02:00:16.622Z,69.88
2018-07-13T02:02:29.070Z,70.74
2018-07-13T02:04:41.623Z,70.05
2018-07-13T02:06:54.039Z,70.67
2018-07-13T02:09:07.715Z,70.07
2018-07-13T02:11:20.150Z,69.98
2018-07-13T02:13:32.589Z,70.87
2018-07-13T02:15:44.894Z,70.54
2018-07-13T02:17:57.342Z,70.39
2018-07-13T02:20:09.702Z,70.13
2018-07-13T02:22:22.281Z,70.33
2018-07-13T02:24:34.754Z,70.13
2018-07-13T02:26:47.205Z,70.24
2018-07-13T02:28:59.595Z,69.56
2018-07-13T02:31:11.934Z,70.15
2018-07-13T02:33:24.302Z,70.10
2018-07-13T02:35:36.904Z,70.29
2018-07-13T02:37:49.398Z,70.72
2018-07-13T02:40:01.754Z,70.48
2018-07-13T02:42:14.062Z,70.04
2018-07-13T02:44:26.558Z,70.82
2018-07-13T02:46:38.914Z,69.77
2018-07-13T02:48:51.385Z,70.59
2018-07-13T02:51:03.755Z,69.84
2018-07-13T02:53:16.090Z,70.20
2018-07-13T02:55:28.522Z,70.35
2018-07-13T02:57:40.970Z,69.88
2018-07-13T02:59:53.295Z,70.51
2018-07-13T03:02:06.071Z,69.69
2018-07-13T03:04:18.441Z,69.87
2018-07-13T03:06:30.975Z,69.79
2018-07-13T03:08:43.395Z,70.43
2018-07-13T03:10:55.733Z,70.43
2018-07-13T03:13:08.132Z,70.77
2018-07-13T03:15:20.550Z,70.51
2018-07-13T03:17:33.010Z,70.44
2018-07-13T03:19:45.446Z,71.13
2018-07-13T03:21:57.847Z,71.69
2018-07-13T03:24:10.282Z,71.01
2018-07-13T03:26:22.751Z,70.50
2018-07-13T03:28:35.122Z,70.51
2018-07-13T03:30:47.628Z,70.41
2018-07-13T03:33:00.031Z,70.55
2018-07-13T03:35:12.428Z,70.49
2018-07-13T03:37:24.814Z,71.06
2018-07-13T03:39:37.290Z,70.93
2018-07-13T03:41:49.657Z,70.40
2018-07-13T03:44:02.273Z,71.26
2018-07-13T03:46:14.574Z,71.51
2018-07-13T03:48:27.053Z,71.49
2018-07-13T03:50:39.442Z,72.10
2018-07-13T03:52:51.907Z,72.38
2018-07-13T03:55:04.353Z,72.26
2018-07-13T03:57:16.804Z,71.92
2018-07-13T03:59:29.438Z,72.32
2018-07-13T04:01:42.087Z,72.39
2018-07-13T04:03:54.651Z,71.97
2018-07-13T04:06:07.322Z,71.94
2018-07-13T04:08:19.688Z,72.37
2018-07-13T04:10:32.021Z,71.96
2018-07-13T04:12:44.526Z,72.21
2018-07-13T04:14:56.952Z,72.35
2018-07-13T04:17:09.311Z,71.47
2018-07-13T04:19:21.832Z,71.58
2018-07-13T04:21:34.245Z,71.81
2018-07-13T04:23:46.693Z,71.89
2018-07-13T04:25:59.134Z,71.68
2018-07-13T04:28:11.610Z,72.60
2018-07-13T04:30:24.006Z,72.18
2018-07-13T04:32:36.403Z,71.63
2018-07-13T04:34:48.834Z,71.58
2018-07-13T04:37:01.335Z,70.80
2018-07-13T04:39:13.762Z,70.52
2018-07-13T04:41:26.211Z,70.86
2018-07-13T04:43:38.587Z,70.37
2018-07-13T04:45:50.973Z,69.72
2018-07-13T04:48:03.605Z,69.86
2018-07-13T04:50:16.110Z,69.21
2018-07-13T04:52:28.480Z,69.60
2018-07-13T04:54:41.125Z,69.52
2018-07-13T04:56:53.530Z,69.19
2018-07-13T04:59:05.926Z,68.19
2018-07-13T05:01:18.378Z,68.48
2018-07-13T05:03:30.881Z,69.14
2018-07-13T05:05:43.322Z,68.72
2018-07-13T05:07:55.794Z,68.56
2018-07-13T05:10:08.256Z,68.01
2018-07-13T05:12:20.694Z,67.64
2018-07-13T05:14:33.130Z,67.91
2018-07-13T05:16:45.554Z,67.05
2018-07-13T05:18:57.963Z,67.88
2018-07-13T05:21:10.477Z,66.79
2018-07-13T05:23:22.921Z,66.33
2018-07-13T05:25:35.606Z,66.05
2018-07-13T05:27:48.031Z,66.35
2018-07-13T05:30:01.111Z,65.61
2018-07-13T05:32:13.553Z,65.45
2018-07-13T05:34:26.023Z,65.54
2018-07-13T05:36:38.792Z,65.12
2018-07-13T05:38:51.491Z,64.61
2018-07-13T05:41:03.935Z,63.51
2018-07-13T05:43:16.653Z,61.80
2018-07-13T05:45:29.315Z,61.88
2018-07-13T05:47:41.755Z,61.37
2018-07-13T05:49:54.230Z,62.54
2018-07-13T05:52:06.606Z,62.26
2018-07-13T05:54:19.022Z,62.32
2018-07-13T05:56:31.599Z,61.94
2018-07-13T05:58:44.030Z,61.68
2018-07-13T06:00:56.460Z,61.61
2018-07-13T06:03:08.894Z,61.88
2018-07-13T06:05:21.347Z,61.18
2018-07-13T06:07:33.763Z,60.76
2018-07-13T06:09:46.264Z,60.47
2018-07-13T06:11:58.927Z,60.25
2018-07-13T06:14:11.494Z,59.30
2018-07-13T06:16:23.955Z,59.18
2018-07-13T06:18:36.363Z,58.99
2018-07-13T06:20:48.831Z,58.27
2018-07-13T06:23:01.198Z,56.30
2018-07-13T06:25:13.770Z,55.33
2018-07-13T06:27:26.167Z,55.33
2018-07-13T06:29:38.518Z,56.00
2018-07-13T06:31:50.964Z,55.62
2018-07-13T06:34:03.586Z,54.72
2018-07-13T06:36:15.967Z,55.00
2018-07-13T06:38:28.370Z,53.06
2018-07-13T06:40:40.799Z,54.65
2018-07-13T06:42:53.256Z,52.41
2018-07-13T06:45:05.702Z,52.77
2018-07-13T06:47:18.122Z,52.31
2018-07-13T06:49:30.496Z,51.86
2018-07-13T06:51:42.946Z,50.74
2018-07-13T06:53:55.454Z,49.47
2018-07-13T06:56:07.886Z,49.95
2018-07-13T06:58:31.605Z,49.74
2018-07-13T07:00:54.123Z,47.57
2018-07-13T07:03:06.490Z,47.81
2018-07-13T07:06:22.513Z,48.44
2018-07-13T07:08:36.022Z,46.53
2018-07-13T07:10:48.449Z,46.00
2018-07-13T07:13:38.415Z,46.25
2018-07-13T07:15:50.820Z,46.14
2018-07-13T07:18:03.319Z,43.59
2018-07-13T07:20:16.030Z,46.23
2018-07-13T07:22:28.498Z,44.36
2018-07-13T07:24:40.862Z,44.02
2018-07-13T07:26:53.223Z,42.64
2018-07-13T07:29:05.751Z,43.07
2018-07-13T07:31:18.246Z,41.38
2018-07-13T07:33:30.662Z,41.92
2018-07-13T07:35:43.093Z,43.01
2018-07-13T07:37:55.440Z,42.52
2018-07-13T07:40:08.033Z,42.42
2018-07-13T07:42:20.462Z,42.62
2018-07-13T07:44:32.820Z,40.30
2018-07-13T07:46:45.331Z,39.70
2018-07-13T07:48:57.802Z,39.49
2018-07-13T07:51:10.190Z,39.68
2018-07-13T07:53:22.769Z,41.07
2018-07-13T07:55:35.331Z,39.11
2018-07-13T07:57:47.769Z,38.88
2018-07-13T08:00:00.250Z,40.96
2018-07-13T08:02:12.795Z,41.72
2018-07-13T08:04:25.299Z,38.56
2018-07-13T08:06:37.737Z,38.31
2018-07-13T08:08:50.152Z,39.75
2018-07-13T08:11:02.516Z,36.12
2018-07-13T08:13:14.946Z,37.28
2018-07-13T08:15:27.464Z,39.49
2018-07-13T08:17:39.982Z,37.90
2018-07-13T08:19:52.536Z,38.18
2018-07-13T08:22:14.049Z,36.93
2018-07-13T08:24:26.524Z,37.36
2018-07-13T08:26:39.765Z,36.85
2018-07-13T08:28:52.231Z,36.95
2018-07-13T08:31:04.689Z,36.22
2018-07-13T08:33:17.052Z,36.47
2018-07-13T08:35:30.142Z,36.43
2018-07-13T08:37:42.667Z,35.38
2018-07-13T08:39:55.082Z,35.88
2018-07-13T08:42:07.743Z,37.66
2018-07-13T08:44:20.382Z,35.98
2018-07-13T08:46:32.826Z,35.30
2018-07-13T08:48:45.239Z,36.06
2018-07-13T08:50:57.657Z,35.96
2018-07-13T08:53:10.092Z,36.19
2018-07-13T08:55:22.598Z,36.15
2018-07-13T08:57:35.026Z,35.59
2018-07-13T08:59:47.667Z,35.11
2018-07-13T09:02:00.067Z,34.18
2018-07-13T09:04:12.494Z,35.55
2018-07-13T09:06:24.989Z,35.70
2018-07-13T09:08:37.387Z,36.66
2018-07-13T09:10:49.835Z,37.41
2018-07-13T09:13:02.294Z,35.74
2018-07-13T09:15:14.645Z,38.33
2018-07-13T09:17:27.162Z,35.70
2018-07-13T09:19:39.549Z,36.48
2018-07-13T09:21:51.998Z,35.33
2018-07-13T09:24:04.413Z,37.80
2018-07-13T09:26:16.844Z,36.73
2018-07-13T09:28:29.289Z,36.00
2018-07-13T09:30:41.879Z,35.69
2018-07-13T09:32:54.599Z,34.53
2018-07-13T09:35:07.067Z,35.57
2018-07-13T09:37:19.729Z,35.54
2018-07-13T09:39:32.186Z,34.36
2018-07-13T09:41:44.737Z,34.60
2018-07-13T09:43:57.137Z,35.33
2018-07-13T09:46:09.527Z,34.43
2018-07-13T09:48:22.075Z,35.70
2018-07-13T09:50:34.487Z,34.54
2018-07-13T09:52:46.861Z,34.47
2018-07-13T09:54:59.252Z,36.08
2018-07-13T09:57:11.742Z,35.22
2018-07-13T09:59:24.323Z,33.05
2018-07-13T10:01:36.766Z,33.81
2018-07-13T10:03:49.287Z,32.79
2018-07-13T10:06:01.924Z,33.51
2018-07-13T10:08:14.317Z,33.89
2018-07-13T10:10:26.833Z,33.63
2018-07-13T10:12:39.276Z,32.99
2018-07-13T10:14:51.662Z,35.18
2018-07-13T10:17:04.438Z,35.23
2018-07-13T10:19:16.827Z,35.42
2018-07-13T10:21:29.460Z,34.30
2018-07-13T10:23:43.074Z,36.48
2018-07-13T10:25:59.394Z,34.27
2018-07-13T10:28:12.118Z,32.99
2018-07-13T10:30:24.635Z,32.20
2018-07-13T10:32:37.096Z,32.93
2018-07-13T10:34:50.710Z,33.63
2018-07-13T10:37:04.185Z,32.57
2018-07-13T10:39:16.631Z,33.00
2018-07-13T10:41:29.142Z,33.67
2018-07-13T10:43:41.824Z,34.15
2018-07-13T10:45:54.264Z,34.12
2018-07-13T10:48:06.844Z,34.33
2018-07-13T10:50:19.199Z,34.02
2018-07-13T10:52:31.659Z,34.10
2018-07-13T10:54:44.060Z,33.43
2018-07-13T10:56:56.435Z,33.60
2018-07-13T10:59:08.826Z,33.31
2018-07-13T11:01:21.202Z,33.28
2018-07-13T11:03:33.597Z,32.78
2018-07-13T11:05:46.042Z,31.93
2018-07-13T11:07:58.500Z,33.07
2018-07-13T11:10:10.908Z,32.46
2018-07-13T11:12:23.248Z,31.64
2018-07-13T11:14:35.597Z,34.12
2018-07-13T11:16:47.922Z,32.52
2018-07-13T11:19:00.343Z,32.80
2018-07-13T11:21:12.865Z,32.61
2018-07-13T11:23:25.315Z,35.04
2018-07-13T11:25:37.718Z,36.57
2018-07-13T11:27:50.066Z,36.59
2018-07-13T11:30:02.548Z,36.49
2018-07-13T11:32:14.987Z,35.48
2018-07-13T11:34:27.348Z,34.55
2018-07-13T11:36:40.089Z,36.33
2018-07-13T11:38:52.536Z,35.92
2018-07-13T11:41:05.050Z,35.05
2018-07-13T11:43:17.489Z,35.12
2018-07-13T11:45:30.819Z,34.98
2018-07-13T11:47:43.217Z,32.88
2018-07-13T11:49:55.774Z,33.13
2018-07-13T11:52:08.208Z,33.69
2018-07-13T11:54:20.565Z,33.32
2018-07-13T11:56:32.946Z,34.03
2018-07-13T11:58:45.313Z,35.07
2018-07-13T12:00:57.867Z,37.27
2018-07-13T12:03:10.275Z,35.85
2018-07-13T12:05:22.720Z,34.25
2018-07-13T12:07:35.228Z,36.19
2018-07-13T12:09:47.619Z,35.64
2018-07-13T12:12:00.041Z,36.22
2018-07-13T12:14:12.521Z,34.99
2018-07-13T12:16:27.943Z,34.67
2018-07-13T12:18:40.347Z,32.44
2018-07-13T12:20:52.806Z,33.20
2018-07-13T12:23:05.506Z,32.90
2018-07-13T12:25:18.025Z,34.88
2018-07-13T12:27:30.390Z,34.58
2018-07-13T12:29:42.902Z,33.78
2018-07-13T12:31:55.386Z,34.14
2018-07-13T12:34:07.830Z,34.20
2018-07-13T12:36:20.232Z,35.37
2018-07-13T12:38:32.625Z,33.69
2018-07-13T12:40:45.025Z,34.33
2018-07-13T12:42:57.475Z,34.30
2018-07-13T12:45:09.874Z,36.44
2018-07-13T12:47:22.265Z,34.74
2018-07-13T12:49:34.770Z,34.73
2018-07-13T12:51:47.234Z,35.20
2018-07-13T12:53:59.742Z,36.27
2018-07-13T12:56:12.158Z,34.55
2018-07-13T12:58:24.573Z,34.73
2018-07-13T13:00:37.021Z,33.71
2018-07-13T13:02:49.410Z,33.95
2018-07-13T13:05:01.818Z,33.81
2018-07-13T13:07:14.590Z,34.11
2018-07-13T13:09:27.102Z,34.26
2018-07-13T13:11:39.539Z,34.12
2018-07-13T13:13:51.933Z,33.87
2018-07-13T13:16:04.630Z,33.08
2018-07-13T13:18:17.061Z,32.91
2018-07-13T13:20:29.528Z,34.12
2018-07-13T13:22:41.937Z,31.86
2018-07-13T13:24:54.263Z,31.84
2018-07-13T13:27:06.768Z,32.84
2018-07-13T13:29:19.360Z,33.89
2018-07-13T13:31:31.672Z,33.28
2018-07-13T13:33:44.011Z,31.49
2018-07-13T13:35:56.551Z,32.74
2018-07-13T13:38:08.942Z,33.73
2018-07-13T13:40:21.386Z,31.71
2018-07-13T13:42:33.777Z,31.97
2018-07-13T13:44:46.751Z,32.80
2018-07-13T13:46:59.279Z,32.94
2018-07-13T13:49:11.751Z,32.72
2018-07-13T13:51:24.180Z,32.97
2018-07-13T13:53:36.583Z,31.97
2018-07-13T13:55:48.953Z,31.67
2018-07-13T13:58:01.528Z,31.96
2018-07-13T14:00:14.860Z,32.40
2018-07-13T14:02:27.290Z,31.99
2018-07-13T14:04:39.751Z,32.46
2018-07-13T14:06:52.125Z,31.78
2018-07-13T14:09:05.798Z,32.24
2018-07-13T14:11:18.107Z,32.17
2018-07-13T14:13:31.127Z,32.61
2018-07-13T14:15:43.572Z,31.57
2018-07-13T14:17:56.042Z,32.18
2018-07-13T14:20:08.628Z,31.78
2018-07-13T14:22:20.951Z,32.69
2018-07-13T14:24:33.274Z,32.28
2018-07-13T14:26:46.831Z,31.25
2018-07-13T14:28:59.397Z,31.86
2018-07-13T14:31:12.004Z,32.30
2018-07-13T14:33:24.551Z,32.22
2018-07-13T14:35:36.975Z,32.18
2018-07-13T14:37:49.602Z,31.62
2018-07-13T14:40:03.042Z,32.08
2018-07-13T14:42:15.451Z,32.54
2018-07-13T14:44:27.906Z,32.98
2018-07-13T14:46:40.273Z,31.89
2018-07-13T14:48:52.982Z,31.51
2018-07-13T14:51:05.412Z,32.49
2018-07-13T14:53:18.881Z,30.60
2018-07-13T14:55:31.206Z,31.41
2018-07-13T14:57:43.757Z,30.08
2018-07-13T14:59:56.318Z,30.98
2018-07-13T15:02:08.758Z,31.45
2018-07-13T15:04:21.143Z,31.77
2018-07-13T15:06:33.670Z,31.21
2018-07-13T15:08:45.927Z,31.65
2018-07-13T15:10:58.292Z,32.49
2018-07-13T15:13:10.785Z,31.24
2018-07-13T15:15:23.171Z,31.55
2018-07-13T15:17:35.722Z,30.83
2018-07-13T15:19:48.623Z,31.85
2018-07-13T15:22:01.014Z,31.18
2018-07-13T15:24:13.505Z,31.02
2018-07-13T15:26:26.053Z,31.29
2018-07-13T15:28:38.498Z,31.99
2018-07-13T15:30:50.935Z,31.59
2018-07-13T15:33:03.394Z,31.95
2018-07-13T15:35:15.889Z,31.52
2018-07-13T15:37:28.356Z,31.09
2018-07-13T15:39:40.694Z,31.78
2018-07-13T15:41:53.062Z,31.69
2018-07-13T15:44:05.446Z,32.38
2018-07-13T15:46:17.911Z,31.54
2018-07-13T15:48:30.254Z,30.13
2018-07-13T15:50:42.653Z,31.98
2018-07-13T15:52:55.067Z,31.86
2018-07-13T15:55:07.482Z,32.40
2018-07-13T15:57:20.173Z,32.08
2018-07-13T15:59:32.538Z,31.16
2018-07-13T16:01:44.958Z,31.28
2018-07-13T16:03:57.438Z,31.25
2018-07-13T16:06:09.782Z,30.69
2018-07-13T16:08:22.263Z,30.72
2018-07-13T16:10:34.622Z,31.27
2018-07-13T16:12:47.014Z,31.33
2018-07-13T16:14:59.521Z,30.58
2018-07-13T16:17:11.979Z,32.15
2018-07-13T16:19:24.318Z,31.58
2018-07-13T16:21:36.779Z,31.72
2018-07-13T16:23:49.179Z,31.62
2018-07-13T16:26:01.518Z,31.72
2018-07-13T16:28:14.035Z,31.91
2018-07-13T16:30:26.517Z,32.49
2018-07-13T16:32:39.062Z,32.11
2018-07-13T16:34:51.526Z,31.56
2018-07-13T16:37:04.027Z,32.41
2018-07-13T16:39:16.402Z,31.71
2018-07-13T16:41:28.799Z,30.83
2018-07-13T16:43:41.239Z,30.34
2018-07-13T16:45:53.631Z,30.46
2018-07-13T16:48:06.016Z,30.12
2018-07-13T16:50:18.423Z,30.84
2018-07-13T16:52:30.851Z,30.31
2018-07-13T16:54:43.292Z,31.07
2018-07-13T16:56:55.737Z,31.44
2018-07-13T16:59:08.263Z,31.12
2018-07-13T17:01:20.611Z,32.00
2018-07-13T17:03:33.081Z,32.40
2018-07-13T17:05:45.509Z,31.48
2018-07-13T17:07:57.962Z,31.24
2018-07-13T17:10:10.388Z,30.82
2018-07-13T17:12:22.874Z,31.32
2018-07-13T17:14:35.461Z,32.38
2018-07-13T17:16:47.883Z,32.09
2018-07-13T17:19:00.263Z,33.11
2018-07-13T17:21:12.709Z,31.97
2018-07-13T17:23:25.234Z,32.92
2018-07-13T17:25:37.910Z,32.55
2018-07-13T17:27:50.252Z,32.76
2018-07-13T17:30:02.807Z,32.17
2018-07-13T17:32:15.201Z,32.23
2018-07-13T17:34:27.650Z,32.90
2018-07-13T17:36:40.139Z,32.15
2018-07-13T17:38:52.637Z,33.46
2018-07-13T17:41:05.174Z,33.41
2018-07-13T17:43:17.518Z,33.15
2018-07-13T17:45:29.899Z,32.65
2018-07-13T17:47:42.358Z,33.27
2018-07-13T17:49:54.678Z,32.79
2018-07-13T17:52:07.174Z,32.90
2018-07-13T17:54:19.590Z,32.40
2018-07-13T17:56:31.942Z,33.01
2018-07-13T17:58:44.566Z,32.78
2018-07-13T18:00:57.047Z,32.38
2018-07-13T18:03:09.511Z,32.29
2018-07-13T18:05:21.906Z,33.22
2018-07-13T18:07:34.307Z,33.53
2018-07-13T18:09:46.773Z,33.72
2018-07-13T18:11:59.146Z,33.27
2018-07-13T18:14:11.618Z,34.48
2018-07-13T18:16:23.983Z,34.43
2018-07-13T18:18:36.379Z,34.44
2018-07-13T18:20:48.771Z,35.03
2018-07-13T18:23:01.255Z,35.38
2018-07-13T18:25:13.574Z,36.08
2018-07-13T18:27:25.971Z,34.62
2018-07-13T18:29:38.528Z,35.01
2018-07-13T18:31:51.113Z,35.17
2018-07-13T18:34:03.559Z,34.99
2018-07-13T18:36:15.954Z,36.06
2018-07-13T18:38:28.366Z,36.17
2018-07-13T18:40:40.799Z,36.37
2018-07-13T18:42:53.154Z,36.81
2018-07-13T18:45:05.608Z,36.10
2018-07-13T18:47:17.973Z,36.61
2018-07-13T18:49:30.344Z,36.77
2018-07-13T18:51:42.742Z,36.23
2018-07-13T18:53:55.259Z,37.14
2018-07-13T18:56:07.925Z,36.64
2018-07-13T18:58:21.166Z,37.74
2018-07-13T19:00:33.595Z,38.17
2018-07-13T19:02:46.140Z,38.19
2018-07-13T19:04:58.527Z,39.58
2018-07-13T19:07:11.259Z,40.60
2018-07-13T19:09:23.603Z,41.28
2018-07-13T19:11:36.060Z,41.83
2018-07-13T19:13:48.515Z,41.91
2018-07-13T19:16:00.976Z,42.85
2018-07-13T19:18:13.378Z,42.66
2018-07-13T19:20:25.835Z,43.35
2018-07-13T19:22:38.328Z,44.12
2018-07-13T19:24:50.715Z,44.98
2018-07-13T19:27:03.207Z,44.78
2018-07-13T19:29:15.683Z,44.90
2018-07-13T19:31:28.050Z,45.96
2018-07-13T19:33:40.434Z,46.09
2018-07-13T19:35:52.876Z,45.07
2018-07-13T19:38:05.338Z,45.99
2018-07-13T19:40:17.781Z,45.50
2018-07-13T19:42:30.212Z,46.44
2018-07-13T19:44:42.658Z,46.67
2018-07-13T19:46:55.072Z,46.73
2018-07-13T19:49:07.440Z,46.78
2018-07-13T19:51:19.833Z,46.91
2018-07-13T19:53:32.282Z,47.81
2018-07-13T19:55:44.650Z,47.67
2018-07-13T19:57:57.287Z,47.91
2018-07-13T20:00:09.627Z,48.48
2018-07-13T20:02:22.019Z,48.34
2018-07-13T20:04:34.733Z,48.36
2018-07-13T20:06:47.194Z,48.46
2018-07-13T20:08:59.594Z,49.24
2018-07-13T20:11:11.973Z,48.58
2018-07-13T20:13:24.419Z,49.56
2018-07-13T20:15:36.755Z,49.89
2018-07-13T20:17:49.131Z,49.72
2018-07-13T20:20:01.524Z,51.26
2018-07-13T20:22:13.903Z,50.56
2018-07-13T20:24:26.300Z,51.61
2018-07-13T20:26:38.719Z,51.12
2018-07-13T20:28:51.130Z,51.26
2018-07-13T20:31:03.588Z,51.03
2018-07-13T20:33:16.030Z,51.63
2018-07-13T20:35:28.487Z,50.84
2018-07-13T20:37:40.878Z,51.93
2018-07-13T20:39:53.262Z,51.83
2018-07-13T20:42:06.004Z,52.22
2018-07-13T20:44:18.425Z,51.89
2018-07-13T20:46:30.967Z,51.55
2018-07-13T20:48:44.036Z,51.78
2018-07-13T20:50:56.550Z,52.56
2018-07-13T20:53:09.219Z,51.82
2018-07-13T20:55:21.594Z,53.15
2018-07-13T20:57:33.972Z,51.33
2018-07-13T20:59:46.428Z,51.95
2018-07-13T21:01:58.970Z,51.62
2018-07-13T21:04:11.415Z,52.53
2018-07-13T21:06:23.911Z,51.83
2018-07-13T21:08:36.382Z,52.16
2018-07-13T21:10:48.746Z,52.99
2018-07-13T21:13:01.190Z,52.35
2018-07-13T21:15:13.639Z,53.53
2018-07-13T21:17:26.062Z,53.10
2018-07-13T21:19:38.524Z,53.66
2018-07-13T21:21:50.837Z,54.28
2018-07-13T21:24:03.255Z,54.38
2018-07-13T21:26:15.727Z,54.03
2018-07-13T21:28:28.168Z,54.58
2018-07-13T21:30:40.647Z,54.55
2018-07-13T21:32:53.214Z,54.95
2018-07-13T21:35:05.796Z,55.10
2018-07-13T21:37:18.187Z,55.50
2018-07-13T21:39:30.555Z,54.97
2018-07-13T21:41:42.989Z,54.07
2018-07-13T21:43:55.353Z,54.90
2018-07-13T21:46:07.725Z,53.01
2018-07-13T21:48:20.318Z,53.31
2018-07-13T21:50:32.769Z,53.33
2018-07-13T21:52:45.180Z,54.21
2018-07-13T21:54:57.626Z,53.69
2018-07-13T21:57:09.993Z,54.18
2018-07-13T21:59:22.663Z,54.17
2018-07-13T22:01:35.518Z,55.11
2018-07-13T22:03:47.946Z,55.67
2018-07-13T22:06:00.393Z,55.10
2018-07-13T22:08:12.742Z,54.43
2018-07-13T22:10:25.208Z,54.96
2018-07-13T22:12:37.650Z,55.40
2018-07-13T22:14:50.104Z,55.65
2018-07-13T22:17:02.578Z,55.65
2018-07-13T22:19:15.145Z,56.45
2018-07-13T22:21:27.706Z,55.59
2018-07-13T22:23:40.051Z,56.41
2018-07-13T22:25:52.483Z,56.24
2018-07-13T22:28:05.090Z,56.67
2018-07-13T22:30:17.493Z,56.70
2018-07-13T22:32:29.935Z,57.18
2018-07-13T22:34:42.301Z,56.68
2018-07-13T22:36:54.691Z,57.53
2018-07-13T22:39:07.302Z,56.77
2018-07-13T22:41:19.731Z,57.21
2018-07-13T22:43:32.156Z,57.68
2018-07-13T22:45:44.684Z,58.11
2018-07-13T22:47:57.082Z,59.17
2018-07-13T22:50:09.566Z,58.92
2018-07-13T22:52:22.002Z,58.65
2018-07-13T22:54:34.387Z,59.39
2018-07-13T22:56:46.831Z,59.20
2018-07-13T22:58:59.212Z,58.95
2018-07-13T23:01:11.627Z,59.65
2018-07-13T23:03:24.041Z,60.04
2018-07-13T23:05:36.436Z,59.38
2018-07-13T23:07:48.839Z,59.61
2018-07-13T23:10:01.316Z,59.20
2018-07-13T23:12:13.713Z,60.22
2018-07-13T23:14:26.154Z,60.05
2018-07-13T23:16:38.519Z,60.57
2018-07-13T23:18:50.983Z,59.62
2018-07-13T23:21:03.503Z,59.38
2018-07-13T23:23:15.898Z,59.69
2018-07-13T23:25:28.292Z,60.10
2018-07-13T23:27:40.646Z,59.93
2018-07-13T23:29:53.050Z,59.74
2018-07-13T23:32:05.579Z,60.55
2018-07-13T23:34:17.985Z,60.67
2018-07-13T23:36:30.314Z,61.32
2018-07-13T23:38:42.735Z,60.87
2018-07-13T23:40:55.210Z,60.77
2018-07-13T23:43:07.632Z,61.26
2018-07-13T23:45:20.030Z,60.56
2018-07-13T23:47:32.505Z,61.16
2018-07-13T23:49:44.902Z,61.44
2018-07-13T23:51:57.539Z,60.98
2018-07-13T23:54:09.959Z,61.71
2018-07-13T23:56:22.484Z,61.26
2018-07-13T23:58:35.149Z,61.79
